• Join FlightAware (Why Join?)
  • Login
  • US Flag 
01:00PM EDT


 

Airport Tracker/Info


-or-


 

Live Flight TrackerFlight Track Log ✈ GJS3694 ✈ 09-Apr-2013 ✈ KORD - KCVG

Flight Track Log - Related Links

Times and Time Zones

All times are in EDT time to prevent confusion due to time zone crossing. See the GJS3694 flight status page for this flight to view local times or setup timezone preferences in your user account.

Time Position Orientation Groundspeed Altitude Reporting Facility
EDT Latitude Longitude Course Direction KTS MPH feet Rate Location/Type
07:45PM 42.0000 -87.8833 166° South 147 169 1,800  Level Chicago TRACON
07:46PM 41.9833 -87.8167 109° East 219 252 3,700 960 Climbing Chicago TRACON
07:48PM 41.6712 -87.5450 153° Southeast  Level Estimated
07:48PM 41.8333 -87.7581 164° South 257 296 5,200  Level Chicago Center
07:49PM 41.5693 -87.5627 187° South  Level FlightAware Approximate
07:50PM 41.4930 -87.4706 166° South  Level Estimated
07:50PM 41.7456 -87.7403 171° South 264 304 8,300  Level Chicago Center
07:51PM 41.6669 -87.7211 170° South 284 327 11,100 2,520 Climbing Chicago Center
07:52PM 41.5881 -87.6703 154° Southeast 313 360 13,600 1,680 Climbing Chicago Center
07:53PM 41.5017 -87.6186 156° South 334 384 14,600 1,020 Climbing Chicago Center
07:54PM 41.3978 -87.5661 159° South 392 451 15,800 1,320 Climbing Chicago Center
07:55PM 41.2847 -87.5408 170° South 414 476 17,400 1,680 Climbing Chicago Center
07:56PM 41.1814 -87.4586 149° Southeast 436 502 19,300 1,740 Climbing Chicago Center
07:57PM 41.0581 -87.3581 148° Southeast 436 502 21,000 780 Climbing Chicago Center
07:58PM 40.9519 -87.2717 148° Southeast 447 514 21,000  Level Chicago Center
07:59PM 40.8442 -87.1853 149° Southeast 456 525 21,000  Level Chicago Center
08:00PM 40.7369 -87.1000 149° Southeast 452 520 21,000  Level Chicago Center
08:01PM 40.6300 -87.0150 149° Southeast 452 520 21,000  Level Chicago Center
08:02PM 40.5236 -86.9300 149° Southeast 451 519 21,000  Level Chicago Center
08:03PM 40.4169 -86.8442 148° Southeast 451 519 21,000  Level Chicago Center
08:04PM 40.2931 -86.7450 149° Southeast 454 522 21,000  Level Chicago Center
08:05PM 40.1864 -86.6600 149° Southeast 450 518 21,000  Level Chicago Center
08:06PM 40.1119 -86.6014 149° Southeast 453 521 21,000 -420 Level Indianapolis Center
08:07PM 40.0044 -86.5164 149° Southeast 451 519 20,300 -1,080 Descending Indianapolis Center
08:08PM 39.9003 -86.4342 149° Southeast 440 506 18,800 -1,440 Descending Indianapolis Center
08:09PM 39.8061 -86.3383 142° Southeast 435 501 17,400 -1,500 Descending Indianapolis Center
08:09PM 39.7833 -86.2833 118° Southeast 443 510 16,900 -1,380 Descending Indianapolis TRACON
08:10PM 39.7333 -86.1333 113° Southeast 448 516 15,800 -1,200 Descending Indianapolis TRACON
08:11PM 39.7000 -86.0000 108° East 431 496 14,700 -1,080 Descending Indianapolis TRACON
08:12PM 39.6492 -85.8742 118° Southeast 429 494 13,800 -1,140 Descending Indianapolis Center
08:13PM 39.6039 -85.7361 113° Southeast 417 480 12,500 -1,260 Descending Indianapolis Center
08:14PM 39.5567 -85.5969 114° Southeast 417 480 11,300 -840 Descending Indianapolis Center
08:15PM 39.5133 -85.4619 113° Southeast 421 484 10,900 -360 Descending Indianapolis Center
08:16PM 39.4808 -85.3275 107° East 404 465 10,600 -780 Descending Indianapolis Center
08:17PM 39.4553 -85.2089 106° East 363 418 9,400 -1,320 Descending Indianapolis Center
08:18PM 39.4275 -85.0783 105° East 331 381 7,900 -1,140 Descending Indianapolis Center
08:19PM 39.3975 -84.9761 111° Southeast 313 360 7,100 -1,020 Descending Indianapolis Center
08:20PM 39.3606 -84.8792 116° Southeast 304 350 5,900 -1,140 Descending Indianapolis Center
08:21PM 39.3333 -84.8000 114° Southeast 275 316 5,000 -1,200 Descending Cincinnati TRACON
08:22PM 39.2833 -84.7333 134° Southeast 264 304 3,800 -1,140 Descending Cincinnati TRACON
08:23PM 39.2167 -84.6667 142° Southeast 250 288 2,700 -720 Descending Cincinnati TRACON
08:24PM 39.1667 -84.6667 180° South 202 232 2,500 -480 Descending Cincinnati TRACON
08:25PM 39.1167 -84.6667 180° South 124 143 1,900 -600 Descending Cincinnati TRACON
08:26PM 39.1000 -84.6667 180° South 110 127 1,400 -660 Descending Cincinnati TRACON